Tower, Minnesota
Current Conditions -  °F | °C
As of 2:54 PM on Thursday 18 Dec 2014 (Local Time) from KCQM Reporting Station
Overcast Overcast  
Wind Chill: 19°   Ceiling: 1400
Heat Index: 19°   Visibility: 10mi
Dew Point: 18°   Wind: 0mph
Humidity: 93%   Direction: NA
Pressure: 30.23"   Gusts: NA
Location:  47.81°N, 92.27°W
Report Text: KCQM 182054Z AUTO 00000KT 10SM OVC014 M07/M08 A3023 RMK AO2
Loading
Personal Weather Stations






























Interactive Weather Map New forecast layout! Learn more

10-Day Weather Forecast

Advertisements
Track Severe Weather on mobile